Time;durP1;ratioP1;P1;durP2;ratioP2;P2;SDS_P1;SDS_P2;PMS_P1;PMS_P2;Temp;Humidity;BMP_temperature;BMP_pressure;BME280_temperature;BME280_humidity;BME280_pressure;Samples;Min_cycle;Max_cycle;Signal;HPM_P1;HPM_P2
2021/04/22 00:01:55;;;;;;;16.67;9.75;;;11.10;94.90;;;;;;4990659;28;20085;-52
2021/04/22 00:04:21;;;;;;;17.40;8.75;;;11.10;94.70;;;;;;4990951;28;20404;-47
2021/04/22 00:06:49;;;;;;;18.88;8.48;;;11.10;94.50;;;;;;4989735;28;20030;-47
2021/04/22 00:09:15;;;;;;;23.65;9.93;;;11.10;94.60;;;;;;4991255;28;20028;-49
2021/04/22 00:11:41;;;;;;;16.10;9.27;;;11.10;94.50;;;;;;4990528;28;20222;-50
2021/04/22 00:14:07;;;;;;;19.20;9.00;;;11.00;94.50;;;;;;4990581;28;20085;-47
2021/04/22 00:16:32;;;;;;;19.27;9.77;;;11.00;94.60;;;;;;4991021;28;20110;-45
2021/04/22 00:18:58;;;;;;;18.00;8.70;;;10.90;94.50;;;;;;4991137;28;20026;-46
2021/04/22 00:21:24;;;;;;;18.77;8.38;;;10.90;94.60;;;;;;4991372;28;20084;-47
2021/04/22 00:23:49;;;;;;;20.15;9.07;;;10.80;94.60;;;;;;4990421;28;20022;-47
2021/04/22 00:26:15;;;;;;;20.83;8.65;;;10.80;94.80;;;;;;4991052;28;20113;-49
2021/04/22 00:28:40;;;;;;;19.30;8.27;;;10.70;94.80;;;;;;4991006;28;20298;-48
2021/04/22 00:31:06;;;;;;;16.95;7.97;;;10.70;94.90;;;;;;4991175;28;20161;-46
2021/04/22 00:33:32;;;;;;;22.23;8.23;;;10.70;94.90;;;;;;4990409;28;20105;-49
2021/04/22 00:35:57;;;;;;;14.88;7.80;;;10.70;95.00;;;;;;4990761;28;20058;-47
2021/04/22 00:38:23;;;;;;;23.50;8.25;;;10.70;95.00;;;;;;4991301;28;20464;-48
2021/04/22 00:40:50;;;;;;;18.77;8.65;;;10.70;94.90;;;;;;4990832;28;20093;-45
2021/04/22 00:43:17;;;;;;;18.55;8.45;;;10.70;95.00;;;;;;4990189;28;20030;-49
2021/04/22 00:45:43;;;;;;;12.07;6.45;;;10.60;95.20;;;;;;4989691;28;20027;-46
2021/04/22 00:48:12;;;;;;;16.00;8.80;;;10.60;95.20;;;;;;4990799;28;20038;-45
2021/04/22 00:50:39;;;;;;;13.77;7.78;;;10.50;95.40;;;;;;4991278;28;20025;-47
2021/04/22 00:53:05;;;;;;;20.67;8.32;;;10.50;95.40;;;;;;4989954;28;20084;-48
2021/04/22 00:55:31;;;;;;;20.17;8.48;;;10.40;95.40;;;;;;4991065;28;20054;-49
2021/04/22 00:57:57;;;;;;;10.70;7.75;;;10.40;95.60;;;;;;4990759;28;20030;-44
2021/04/22 01:00:29;;;;;;;11.82;8.10;;;10.50;95.80;;;;;;4989685;28;20030;-46
2021/04/22 01:02:54;;;;;;;19.95;9.88;;;10.50;95.60;;;;;;4989122;28;20033;-46
2021/04/22 01:05:35;;;;;;;23.83;8.88;;;10.50;95.60;;;;;;4990681;28;20446;-48
2021/04/22 01:08:01;;;;;;;18.70;9.60;;;10.40;95.80;;;;;;4990626;28;20392;-46
2021/04/22 01:10:27;;;;;;;24.63;8.93;;;10.30;96.10;;;;;;4990564;28;20018;-52
2021/04/22 01:12:53;;;;;;;15.93;8.38;;;10.30;96.40;;;;;;4989915;28;20502;-48
2021/04/22 01:15:24;;;;;;;18.17;9.05;;;10.30;96.30;;;;;;4990652;28;20080;-47
2021/04/22 01:17:50;;;;;;;18.45;8.70;;;10.30;96.30;;;;;;4990799;28;20102;-48
2021/04/22 01:20:25;;;;;;;19.48;9.90;;;10.30;96.30;;;;;;4990588;28;20034;-47
2021/04/22 01:22:52;;;;;;;20.58;9.80;;;10.30;96.20;;;;;;4991331;28;20489;-50
2021/04/22 01:25:33;;;;;;;16.73;8.07;;;10.30;96.10;;;;;;4994196;28;20038;-48
2021/04/22 01:27:59;;;;;;;12.70;8.13;;;10.10;96.20;;;;;;4993823;28;20030;-46
2021/04/22 01:30:32;;;;;;;14.18;8.55;;;10.10;96.30;;;;;;4993976;28;20022;-46
2021/04/22 01:32:58;;;;;;;15.13;8.35;;;10.00;96.30;;;;;;4993558;28;20026;-48
2021/04/22 01:35:29;;;;;;;15.48;9.27;;;10.00;96.50;;;;;;4994005;28;20023;-49
2021/04/22 01:37:56;;;;;;;17.83;7.93;;;10.00;96.40;;;;;;4993812;28;20018;-46
2021/04/22 01:40:24;;;;;;;16.00;8.60;;;10.10;96.40;;;;;;4993803;28;20034;-46
2021/04/22 01:42:49;;;;;;;20.13;8.55;;;10.10;96.10;;;;;;4991545;28;20030;-48
2021/04/22 01:45:15;;;;;;;23.73;9.68;;;9.80;96.30;;;;;;4993625;28;20026;-46
2021/04/22 01:47:42;;;;;;;16.65;7.88;;;9.80;96.30;;;;;;4993511;28;20031;-48
2021/04/22 01:50:11;;;;;;;12.82;6.50;;;9.80;96.30;;;;;;4993603;28;20026;-44
2021/04/22 01:52:37;;;;;;;15.43;7.38;;;9.70;96.20;;;;;;4992844;28;20444;-45
2021/04/22 01:55:05;;;;;;;16.08;7.70;;;9.60;96.20;;;;;;4993273;28;20022;-46
2021/04/22 01:57:30;;;;;;;13.45;6.88;;;9.60;96.20;;;;;;4993272;28;20035;-49
2021/04/22 01:59:56;;;;;;;16.55;6.93;;;9.60;96.20;;;;;;4992643;28;20026;-48
2021/04/22 02:02:21;;;;;;;14.35;7.43;;;9.50;96.20;;;;;;4992207;28;20030;-46
2021/04/22 02:04:47;;;;;;;21.73;7.95;;;9.30;96.30;;;;;;4993005;28;20030;-45
2021/04/22 02:07:14;;;;;;;17.48;7.38;;;9.30;96.30;;;;;;4994241;28;20033;-47
2021/04/22 02:09:39;;;;;;;15.95;6.53;;;9.30;96.10;;;;;;4992112;28;20128;-47
2021/04/22 02:12:06;;;;;;;16.63;8.85;;;9.20;96.00;;;;;;4993903;28;20070;-49
2021/04/22 02:14:31;;;;;;;19.05;6.78;;;9.10;96.00;;;;;;4993176;28;20037;-48
2021/04/22 02:16:57;;;;;;;22.92;7.32;;;9.00;96.00;;;;;;5010401;23;20026;-47
2021/04/22 02:19:23;;;;;;;26.80;7.00;;;8.90;96.00;;;;;;5013987;28;20034;-46
2021/04/22 02:21:49;;;;;;;18.08;6.50;;;8.80;95.90;;;;;;5032768;28;20210;-50
2021/04/22 02:24:15;;;;;;;20.13;6.13;;;8.70;95.60;;;;;;5034543;28;20025;-43
2021/04/22 02:26:40;;;;;;;12.07;5.30;;;8.60;95.70;;;;;;5033451;28;20048;-43
2021/04/22 02:29:06;;;;;;;16.10;5.90;;;8.60;95.70;;;;;;5032584;28;20061;-43
2021/04/22 02:31:31;;;;;;;17.05;5.55;;;8.50;95.80;;;;;;5031427;28;20517;-43
2021/04/22 02:33:57;;;;;;;19.70;6.22;;;8.50;96.00;;;;;;5014359;28;20395;-48
2021/04/22 02:36:23;;;;;;;19.17;6.38;;;8.40;95.90;;;;;;5014590;28;20243;-45
2021/04/22 02:38:48;;;;;;;14.60;5.05;;;8.30;95.40;;;;;;5014795;28;20053;-42
2021/04/22 02:41:14;;;;;;;14.65;5.93;;;8.30;95.70;;;;;;5032723;28;20470;-42
2021/04/22 02:43:40;;;;;;;18.42;5.05;;;8.30;95.40;;;;;;5032163;28;20086;-46
2021/04/22 02:46:05;;;;;;;15.00;4.55;;;8.20;95.50;;;;;;5032861;28;20017;-45
2021/04/22 02:48:31;;;;;;;15.88;5.22;;;8.10;95.00;;;;;;5032249;28;20032;-45
2021/04/22 02:50:58;;;;;;;19.23;5.72;;;8.10;94.80;;;;;;5014324;28;20212;-46
2021/04/22 02:53:24;;;;;;;28.50;6.97;;;8.00;95.20;;;;;;5031747;28;20022;-46
2021/04/22 02:55:50;;;;;;;12.52;5.05;;;8.00;95.30;;;;;;5032342;28;20382;-48
2021/04/22 02:58:16;;;;;;;7.47;5.30;;;7.90;95.60;;;;;;5031818;28;20105;-46
2021/04/22 03:00:46;;;;;;;16.10;4.88;;;7.90;95.70;;;;;;5029819;28;20402;-48
2021/04/22 03:03:12;;;;;;;14.60;4.53;;;7.80;95.70;;;;;;5031113;28;20025;-46
2021/04/22 03:05:38;;;;;;;13.75;4.65;;;7.70;95.70;;;;;;5014013;28;20044;-44
2021/04/22 03:08:05;;;;;;;12.52;4.53;;;7.70;95.80;;;;;;5031551;28;20088;-45
2021/04/22 03:10:31;;;;;;;11.77;4.10;;;7.60;96.10;;;;;;5031528;28;20056;-44
2021/04/22 03:12:58;;;;;;;13.45;5.50;;;7.50;96.20;;;;;;5030883;28;20029;-43
2021/04/22 03:15:24;;;;;;;9.32;4.90;;;7.50;96.30;;;;;;5031775;28;20026;-44
2021/04/22 03:17:50;;;;;;;13.23;4.63;;;7.40;96.50;;;;;;5031519;28;20033;-48
2021/04/22 03:20:17;;;;;;;9.30;4.00;;;7.40;96.20;;;;;;5031694;28;20510;-50
2021/04/22 03:22:43;;;;;;;9.52;3.70;;;7.40;96.30;;;;;;5030943;28;20091;-43
2021/04/22 03:25:12;;;;;;;18.50;4.55;;;7.30;96.50;;;;;;5031386;28;20033;-46
2021/04/22 03:27:38;;;;;;;13.10;4.72;;;7.20;96.50;;;;;;5031241;28;20061;-42
2021/04/22 03:30:06;;;;;;;15.55;3.95;;;7.20;96.40;;;;;;5031572;28;20029;-48
2021/04/22 03:32:31;;;;;;;7.38;4.22;;;7.10;96.20;;;;;;5031027;28;20025;-44
2021/04/22 03:34:57;;;;;;;11.73;4.78;;;7.00;96.20;;;;;;5031093;28;20013;-46
2021/04/22 03:37:23;;;;;;;14.32;4.00;;;7.00;96.20;;;;;;5031421;28;20044;-44
2021/04/22 03:39:48;;;;;;;10.13;3.22;;;6.90;96.10;;;;;;5031296;28;20033;-47
2021/04/22 03:42:17;;;;;;;9.02;3.05;;;6.90;96.10;;;;;;5031347;28;20061;-43
2021/04/22 03:44:46;;;;;;;10.10;3.65;;;6.90;96.10;;;;;;5030697;28;20029;-47
2021/04/22 03:47:12;;;;;;;6.25;3.50;;;6.80;95.90;;;;;;5031034;28;20040;-45
2021/04/22 03:49:39;;;;;;;10.07;3.08;;;6.70;95.80;;;;;;5030937;28;20025;-44
2021/04/22 03:52:05;;;;;;;12.77;4.28;;;6.80;95.90;;;;;;5030993;28;20081;-46
2021/04/22 03:54:31;;;;;;;10.63;3.65;;;6.70;95.70;;;;;;5030172;28;20020;-43
2021/04/22 03:56:58;;;;;;;8.45;3.15;;;6.70;95.80;;;;;;5030960;28;20029;-49
2021/04/22 03:59:23;;;;;;;11.32;3.28;;;6.70;95.70;;;;;;5029705;28;20108;-44
2021/04/22 04:01:49;;;;;;;13.60;3.45;;;6.70;95.90;;;;;;5029625;28;20534;-45
2021/04/22 04:04:14;;;;;;;10.90;2.88;;;6.70;95.60;;;;;;5030295;28;20080;-45
2021/04/22 04:06:40;;;;;;;10.00;3.08;;;6.70;95.60;;;;;;5030541;28;20398;-43
2021/04/22 04:09:06;;;;;;;14.32;3.38;;;6.70;95.80;;;;;;5030429;28;20026;-43
2021/04/22 04:11:31;;;;;;;10.70;3.92;;;6.60;95.40;;;;;;5030837;28;20026;-43
2021/04/22 04:13:57;;;;;;;8.23;3.03;;;6.60;95.70;;;;;;5030098;28;20029;-46
2021/04/22 04:16:22;;;;;;;12.18;3.20;;;6.50;95.70;;;;;;5030533;28;20477;-45
2021/04/22 04:18:48;;;;;;;12.15;3.08;;;6.50;95.80;;;;;;5030136;28;20406;-46
2021/04/22 04:21:13;;;;;;;11.07;3.10;;;6.50;95.70;;;;;;5030512;28;20031;-45
2021/04/22 04:23:39;;;;;;;8.93;3.03;;;6.40;95.60;;;;;;5029817;28;20026;-44
2021/04/22 04:26:04;;;;;;;16.25;3.63;;;6.40;95.60;;;;;;5030391;28;20025;-44
2021/04/22 04:28:30;;;;;;;18.92;3.22;;;6.30;95.70;;;;;;5030529;28;20476;-43
2021/04/22 04:30:55;;;;;;;15.60;5.70;;;6.20;95.80;;;;;;5012503;28;20018;-44
2021/04/22 04:33:21;;;;;;;15.75;4.10;;;6.20;95.80;;;;;;5029694;28;20443;-45
2021/04/22 04:35:46;;;;;;;15.48;3.30;;;6.20;95.90;;;;;;5030278;28;20499;-43
2021/04/22 04:38:13;;;;;;;8.65;2.85;;;6.20;95.90;;;;;;5030557;28;20053;-45
2021/04/22 04:40:38;;;;;;;21.15;4.47;;;6.20;96.00;;;;;;5030939;28;20055;-45
2021/04/22 04:43:04;;;;;;;25.30;4.30;;;6.20;96.00;;;;;;5030510;28;20025;-45
2021/04/22 04:45:29;;;;;;;12.85;3.72;;;6.20;96.00;;;;;;5012512;28;20116;-45
2021/04/22 04:47:55;;;;;;;16.77;3.72;;;6.20;96.00;;;;;;5030176;28;20030;-45
2021/04/22 04:50:21;;;;;;;16.80;3.92;;;6.20;96.20;;;;;;5030139;28;20148;-45
2021/04/22 04:52:48;;;;;;;12.00;3.65;;;6.20;96.00;;;;;;5029604;28;20033;-49
2021/04/22 04:55:15;;;;;;;16.58;3.08;;;6.20;96.00;;;;;;5030211;28;20415;-48
2021/04/22 04:57:42;;;;;;;9.50;3.35;;;6.20;96.00;;;;;;5031419;28;20029;-44
2021/04/22 05:00:12;;;;;;;10.45;3.72;;;6.20;96.00;;;;;;5033010;28;20394;-43
2021/04/22 05:02:37;;;;;;;11.18;3.28;;;6.10;95.70;;;;;;5033168;28;20036;-47
2021/04/22 05:05:04;;;;;;;6.90;3.40;;;6.10;95.90;;;;;;5034340;28;20029;-47
2021/04/22 05:07:30;;;;;;;11.82;3.25;;;6.10;95.90;;;;;;5033656;28;20052;-44
2021/04/22 05:09:55;;;;;;;11.75;3.45;;;6.20;96.00;;;;;;5034901;28;20081;-42
2021/04/22 05:12:21;;;;;;;14.00;3.35;;;6.10;95.30;;;;;;5033846;28;20021;-45
2021/04/22 05:14:47;;;;;;;26.88;4.38;;;6.10;95.20;;;;;;5032931;28;20458;-46
2021/04/22 05:17:12;;;;;;;25.55;4.70;;;6.10;95.40;;;;;;5033417;28;20038;-47
2021/04/22 05:19:38;;;;;;;16.70;5.18;;;6.10;94.90;;;;;;5033150;28;20071;-44
2021/04/22 05:22:04;;;;;;;12.75;3.47;;;6.20;94.90;;;;;;5030595;28;20021;-43
2021/04/22 05:24:29;;;;;;;8.95;3.10;;;6.30;94.50;;;;;;5032906;28;20108;-46
2021/04/22 05:26:55;;;;;;;18.95;4.43;;;6.30;94.20;;;;;;5033209;28;20033;-46
2021/04/22 05:29:20;;;;;;;24.80;4.63;;;6.50;94.20;;;;;;5033143;28;20038;-45
2021/04/22 05:31:46;;;;;;;12.23;2.97;;;6.50;94.00;;;;;;5015320;28;20069;-45
2021/04/22 05:34:11;;;;;;;17.73;4.03;;;6.60;93.80;;;;;;5030463;28;20056;-48
2021/04/22 05:36:37;;;;;;;14.00;4.35;;;6.70;93.50;;;;;;5033660;28;20022;-43
2021/04/22 05:39:04;;;;;;;10.73;3.10;;;6.90;93.20;;;;;;5033308;28;20037;-48
2021/04/22 05:41:29;;;;;;;23.35;5.22;;;6.90;92.40;;;;;;5033403;28;20033;-48
2021/04/22 05:43:55;;;;;;;15.00;3.75;;;6.90;92.50;;;;;;5044138;28;20179;-61
2021/04/22 05:46:20;;;;;;;17.25;3.42;;;7.00;92.50;;;;;;5038695;28;20033;-54
2021/04/22 05:48:46;;;;;;;13.90;3.30;;;7.10;91.90;;;;;;5023100;28;20022;-52
2021/04/22 05:51:11;;;;;;;17.80;3.72;;;7.40;91.90;;;;;;5040380;28;20080;-39
2021/04/22 05:53:37;;;;;;;16.90;3.28;;;7.50;91.10;;;;;;5036647;28;20031;-40
2021/04/22 05:56:03;;;;;;;18.60;3.33;;;7.60;90.90;;;;;;5033393;28;20025;-40
2021/04/22 05:58:29;;;;;;;17.42;3.45;;;7.70;90.50;;;;;;5033551;28;20032;-43
2021/04/22 06:00:54;;;;;;;11.30;3.20;;;7.90;90.40;;;;;;5033015;28;20105;-43
2021/04/22 06:03:20;;;;;;;14.35;2.97;;;7.90;89.50;;;;;;5033077;28;20029;-41
2021/04/22 06:05:45;;;;;;;18.92;3.45;;;7.70;89.30;;;;;;5033087;28;20056;-41
2021/04/22 06:08:11;;;;;;;26.23;5.05;;;7.30;89.30;;;;;;5032899;28;20479;-43
2021/04/22 06:10:38;;;;;;;15.48;4.03;;;7.20;90.00;;;;;;5032003;28;20163;-41
2021/04/22 06:13:04;;;;;;;14.25;3.72;;;7.30;89.80;;;;;;5032995;28;20040;-41
2021/04/22 06:15:29;;;;;;;23.05;4.55;;;7.20;90.00;;;;;;5034804;28;20108;-40
2021/04/22 06:17:55;;;;;;;15.95;4.72;;;7.40;88.60;;;;;;5032777;28;20057;-42
2021/04/22 06:20:23;;;;;;;16.02;4.40;;;7.30;87.60;;;;;;5033277;28;20041;-44
2021/04/22 06:22:49;;;;;;;22.75;4.47;;;7.50;87.70;;;;;;5031038;28;20040;-48
2021/04/22 06:25:17;;;;;;;18.17;4.15;;;7.50;86.30;;;;;;5032071;28;20036;-45
2021/04/22 06:27:43;;;;;;;22.38;6.55;;;7.50;86.80;;;;;;5021757;28;20092;-47
2021/04/22 06:30:13;;;;;;;15.13;4.22;;;7.80;86.70;;;;;;5032494;28;20510;-45
2021/04/22 06:32:38;;;;;;;23.35;5.22;;;8.10;84.50;;;;;;5031297;28;20384;-49
2021/04/22 06:35:06;;;;;;;18.75;4.82;;;8.10;83.80;;;;;;5031766;28;20072;-46
2021/04/22 06:37:31;;;;;;;18.48;4.28;;;8.20;84.40;;;;;;5032416;28;20021;-46
2021/04/22 06:39:57;;;;;;;27.65;4.95;;;8.10;84.60;;;;;;5031855;28;20108;-49
2021/04/22 06:42:23;;;;;;;13.85;4.47;;;8.20;83.40;;;;;;5032052;28;20415;-45
2021/04/22 06:44:49;;;;;;;15.55;5.43;;;8.40;82.30;;;;;;5030999;28;20034;-44
2021/04/22 06:47:14;;;;;;;20.10;4.55;;;8.30;82.40;;;;;;5031390;28;20030;-51
2021/04/22 06:49:40;;;;;;;19.00;5.45;;;8.60;80.90;;;;;;5029792;28;20097;-45
2021/04/22 06:52:06;;;;;;;22.30;4.70;;;9.00;80.10;;;;;;5031289;28;20075;-53
2021/04/22 06:54:32;;;;;;;18.92;4.18;;;9.40;77.50;;;;;;5017830;28;20033;-51
2021/04/22 06:56:58;;;;;;;13.23;4.50;;;9.70;77.20;;;;;;5030656;28;20080;-50
2021/04/22 06:59:23;;;;;;;11.90;4.32;;;9.90;76.60;;;;;;5031745;28;20026;-50
2021/04/22 07:01:49;;;;;;;17.83;4.68;;;10.50;72.50;;;;;;5031485;28;20454;-46
2021/04/22 07:04:14;;;;;;;14.57;5.50;;;10.30;72.10;;;;;;5030694;28;20033;-48
2021/04/22 07:06:40;;;;;;;22.67;4.45;;;10.10;72.70;;;;;;5013680;28;20030;-48
2021/04/22 07:09:06;;;;;;;18.90;5.32;;;10.20;72.30;;;;;;5030962;28;20026;-49
2021/04/22 07:11:31;;;;;;;26.88;5.47;;;10.10;70.80;;;;;;5030703;28;20072;-50
2021/04/22 07:13:57;;;;;;;12.52;4.30;;;9.30;71.70;;;;;;5030304;28;20021;-51
2021/04/22 07:16:22;;;;;;;19.77;4.80;;;8.80;75.40;;;;;;5030989;28;20036;-51
2021/04/22 07:18:50;;;;;;;16.30;5.80;;;8.70;75.00;;;;;;5030680;28;20051;-47
2021/04/22 07:21:15;;;;;;;14.85;4.53;;;8.80;76.80;;;;;;5030915;28;20036;-51
2021/04/22 07:23:41;;;;;;;12.65;4.82;;;8.90;74.20;;;;;;5026595;28;20029;-48
2021/04/22 07:26:06;;;;;;;14.40;3.78;;;8.70;74.00;;;;;;5012299;28;20032;-48
2021/04/22 07:28:33;;;;;;;9.90;4.55;;;8.70;73.40;;;;;;5030635;28;20032;-47
2021/04/22 07:30:58;;;;;;;15.32;4.40;;;8.90;74.00;;;;;;5029993;28;20066;-52
2021/04/22 07:33:24;;;;;;;20.17;4.53;;;9.00;73.70;;;;;;5030052;28;20491;-47
2021/04/22 07:35:49;;;;;;;22.08;4.60;;;9.10;72.70;;;;;;5031283;28;20197;-47
2021/04/22 07:38:16;;;;;;;16.02;4.63;;;9.60;71.80;;;;;;5032338;28;20017;-45
2021/04/22 07:40:44;;;;;;;11.23;4.03;;;10.50;70.50;;;;;;5030791;28;20021;-44
2021/04/22 07:43:11;;;;;;;11.90;3.38;;;11.00;66.00;;;;;;5030419;28;20080;-44
2021/04/22 07:45:39;;;;;;;13.10;3.75;;;11.20;62.50;;;;;;5031185;28;20570;-45
2021/04/22 07:48:06;;;;;;;14.25;3.95;;;11.50;62.50;;;;;;5031370;28;20489;-45
2021/04/22 07:50:33;;;;;;;12.98;3.80;;;11.20;61.70;;;;;;5030990;28;20399;-45
2021/04/22 07:52:59;;;;;;;10.30;3.67;;;11.90;62.10;;;;;;5013631;28;20555;-44
2021/04/22 07:55:30;;;;;;;14.90;4.07;;;12.30;59.90;;;;;;5011579;28;20104;-43
2021/04/22 07:57:56;;;;;;;16.90;4.60;;;13.50;56.70;;;;;;5011804;28;20479;-43
2021/04/22 08:00:23;;;;;;;13.07;4.22;;;13.30;55.50;;;;;;5011442;28;20500;-45
2021/04/22 08:02:49;;;;;;;13.80;4.30;;;12.60;55.80;;;;;;5011169;28;20030;-58
2021/04/22 08:05:16;;;;;;;24.00;7.05;;;12.30;56.80;;;;;;5010573;28;20553;-58
2021/04/22 08:07:42;;;;;;;11.38;3.72;;;12.40;57.60;;;;;;5009874;28;20116;-50
2021/04/22 08:10:10;;;;;;;18.85;5.63;;;12.50;56.40;;;;;;5015005;28;20049;-44
2021/04/22 08:12:36;;;;;;;13.60;4.93;;;13.20;55.00;;;;;;5030702;28;20029;-44
2021/04/22 08:15:05;;;;;;;9.75;3.40;;;13.30;54.00;;;;;;5031495;28;20013;-46
2021/04/22 08:17:31;;;;;;;14.38;4.03;;;12.80;54.60;;;;;;5032665;28;20084;-44
2021/04/22 08:19:56;;;;;;;10.85;4.15;;;12.60;56.50;;;;;;5012621;28;20334;-46
2021/04/22 08:22:22;;;;;;;10.45;3.45;;;12.60;55.80;;;;;;5030756;28;20091;-50
2021/04/22 08:24:48;;;;;;;13.38;3.83;;;12.80;55.10;;;;;;5030591;28;20025;-52
2021/04/22 08:27:13;;;;;;;13.27;4.00;;;13.60;54.60;;;;;;5030842;28;20029;-48
2021/04/22 08:29:39;;;;;;;13.52;3.70;;;14.40;53.80;;;;;;5012813;28;20033;-50
2021/04/22 08:32:05;;;;;;;18.25;3.95;;;15.00;51.10;;;;;;5030620;28;20021;-50
2021/04/22 08:34:30;;;;;;;13.32;3.60;;;15.00;50.20;;;;;;5033636;28;20022;-49
2021/04/22 08:36:56;;;;;;;8.77;3.20;;;15.30;51.00;;;;;;5034183;28;20030;-50
2021/04/22 08:39:21;;;;;;;7.57;3.00;;;15.30;49.80;;;;;;5034030;28;20033;-50
2021/04/22 08:41:47;;;;;;;8.90;3.33;;;14.40;49.60;;;;;;5034030;28;20032;-50
2021/04/22 08:44:13;;;;;;;17.10;5.05;;;14.10;50.30;;;;;;5033762;28;20075;-51
2021/04/22 08:46:40;;;;;;;8.55;2.97;;;14.70;50.90;;;;;;5034517;28;20025;-48
2021/04/22 08:49:06;;;;;;;15.30;3.78;;;14.80;48.80;;;;;;5032928;28;20075;-49
2021/04/22 08:51:32;;;;;;;12.48;4.28;;;14.80;50.00;;;;;;5034702;28;20041;-51
2021/04/22 08:53:59;;;;;;;9.15;3.80;;;15.90;48.70;;;;;;5033639;28;20082;-46
2021/04/22 08:56:25;;;;;;;11.38;4.30;;;16.30;47.40;;;;;;5033967;28;20053;-52
2021/04/22 08:58:51;;;;;;;9.23;3.90;;;15.50;47.50;;;;;;5033688;28;20534;-52
2021/04/22 09:01:19;;;;;;;18.10;3.90;;;14.60;49.60;;;;;;5032388;28;20032;-47
2021/04/22 09:03:47;;;;;;;11.95;4.00;;;14.40;50.20;;;;;;5033320;28;20026;-47
2021/04/22 09:06:13;;;;;;;9.00;3.42;;;13.90;51.00;;;;;;5033829;28;20025;-48
2021/04/22 09:08:44;;;;;;;12.63;3.47;;;14.00;51.40;;;;;;5033303;28;20028;-47
2021/04/22 09:11:11;;;;;;;16.02;3.33;;;13.80;51.00;;;;;;5032787;28;20407;-46
2021/04/22 09:13:37;;;;;;;15.63;3.90;;;13.70;52.00;;;;;;5032871;28;20336;-43
2021/04/22 09:16:11;;;;;;;13.23;3.70;;;14.00;51.50;;;;;;5033656;28;20041;-50
2021/04/22 09:18:42;;;;;;;12.13;3.72;;;14.30;52.60;;;;;;5033417;28;20179;-46
2021/04/22 09:21:24;;;;;;;13.57;4.07;;;14.50;51.10;;;;;;5033986;28;20029;-51
2021/04/22 09:24:18;;;;;;;14.38;4.18;;;14.30;50.80;;;;;;5033149;28;20029;-46
2021/04/22 09:27:02;;;;;;;12.40;3.60;;;13.70;51.20;;;;;;5030844;28;20037;-47
2021/04/22 09:29:39;;;;;;;10.15;3.63;;;13.90;53.40;;;;;;5033605;28;20044;-42
2021/04/22 09:32:16;;;;;;;9.43;4.20;;;13.90;51.90;;;;;;5033608;28;20021;-49
2021/04/22 09:34:45;;;;;;;17.20;3.88;;;14.40;50.70;;;;;;5032573;28;20531;-46
2021/04/22 09:37:10;;;;;;;16.50;4.82;;;14.30;50.00;;;;;;5032034;28;20075;-50
2021/04/22 09:39:36;;;;;;;12.77;3.83;;;14.10;50.30;;;;;;5033339;28;20018;-46
2021/04/22 09:42:07;;;;;;;11.13;3.85;;;14.50;51.10;;;;;;5033364;28;20447;-47
2021/04/22 09:44:34;;;;;;;13.75;4.35;;;14.20;50.30;;;;;;5014831;28;20510;-44
2021/04/22 09:47:07;;;;;;;13.68;3.78;;;13.70;51.50;;;;;;5033034;28;20379;-43
2021/04/22 09:49:42;;;;;;;14.00;4.35;;;13.70;51.90;;;;;;5032003;28;20025;-46
2021/04/22 09:52:08;;;;;;;17.27;5.30;;;14.20;51.30;;;;;;5033502;28;20505;-45
2021/04/22 09:54:43;;;;;;;10.70;4.22;;;14.80;51.30;;;;;;5032362;28;20029;-47
2021/04/22 09:57:18;;;;;;;15.27;3.63;;;15.10;49.90;;;;;;5015659;28;20032;-46
2021/04/22 09:59:44;;;;;;;;;;;15.30;49.40;;;;;;5033849;28;20076;-45
2021/04/22 10:02:09;;;;;;;;;;;15.20;48.90;;;;;;5034013;28;19909;-46
2021/04/22 10:04:39;;;;;;;14.87;3.93;;;15.30;49.90;;;;;;5033014;28;20281;-47
2021/04/22 10:07:16;;;;;;;14.95;3.83;;;15.40;50.30;;;;;;5033366;28;20029;-46
2021/04/22 10:09:42;;;;;;;15.68;5.03;;;15.40;50.30;;;;;;5016186;28;20030;-48
2021/04/22 10:12:30;;;;;;;16.42;4.05;;;14.40;49.70;;;;;;5033906;28;20030;-47
2021/04/22 10:15:08;;;;;;;14.13;3.88;;;13.50;50.80;;;;;;5033111;28;20018;-47
2021/04/22 10:17:33;;;;;;;17.13;4.13;;;13.40;53.60;;;;;;5033195;28;20116;-47
2021/04/22 10:20:03;;;;;;;12.07;3.72;;;13.50;52.60;;;;;;5033610;28;20141;-50
2021/04/22 10:22:32;;;;;;;11.70;4.75;;;13.90;52.00;;;;;;5033037;28;20466;-47
2021/04/22 10:24:59;;;;;;;12.05;4.35;;;14.20;52.60;;;;;;5032602;28;20112;-47
2021/04/22 10:27:26;;;;;;;10.65;4.35;;;14.20;51.40;;;;;;5033601;28;20057;-46
2021/04/22 10:29:53;;;;;;;17.77;4.00;;;14.20;51.20;;;;;;5015445;28;20033;-45
2021/04/22 10:32:21;;;;;;;15.38;4.55;;;14.40;51.20;;;;;;5033282;28;20036;-46
2021/04/22 10:34:47;;;;;;;11.13;3.65;;;13.90;52.80;;;;;;5015159;28;20479;-45
2021/04/22 10:37:14;;;;;;;15.82;3.72;;;14.00;53.00;;;;;;5034885;28;20272;-45
2021/04/22 10:39:40;;;;;;;13.80;4.50;;;14.00;53.00;;;;;;5033648;28;20025;-50
2021/04/22 10:42:06;;;;;;;14.50;4.00;;;14.00;52.20;;;;;;5033266;28;20411;-47
2021/04/22 10:44:36;;;;;;;13.57;3.58;;;14.30;51.90;;;;;;5032003;28;20018;-44
2021/04/22 10:47:03;;;;;;;13.07;4.13;;;14.30;52.20;;;;;;5014659;28;20022;-48
2021/04/22 10:49:28;;;;;;;10.30;3.50;;;14.40;53.30;;;;;;5030902;28;20120;-47
2021/04/22 10:51:54;;;;;;;14.48;3.80;;;14.20;52.80;;;;;;5032735;28;20284;-45
2021/04/22 10:54:20;;;;;;;12.55;4.57;;;14.30;53.40;;;;;;5031490;28;20027;-47
2021/04/22 10:56:47;;;;;;;16.42;4.40;;;14.50;53.40;;;;;;5013810;28;20107;-45
2021/04/22 10:59:22;;;;;;;14.80;4.22;;;14.40;52.60;;;;;;5014195;28;20029;-46
2021/04/22 11:01:48;;;;;;;16.52;4.57;;;14.60;51.70;;;;;;5031850;28;20099;-48
2021/04/22 11:04:14;;;;;;;16.20;4.28;;;14.40;51.30;;;;;;5031632;28;20061;-46
2021/04/22 11:06:42;;;;;;;11.93;4.50;;;14.20;51.50;;;;;;5014176;28;20115;-49
2021/04/22 11:09:20;;;;;;;12.77;3.90;;;14.10;53.10;;;;;;5032102;28;20057;-51
2021/04/22 11:11:57;;;;;;;13.45;4.20;;;14.10;53.60;;;;;;5032408;28;20025;-49
2021/04/22 11:14:34;;;;;;;10.20;3.42;;;14.00;53.20;;;;;;5032311;28;20164;-46
2021/04/22 11:17:00;;;;;;;9.65;3.58;;;13.80;53.60;;;;;;5030648;28;20117;-47
2021/04/22 11:19:33;;;;;;;12.13;3.30;;;13.70;54.00;;;;;;5032527;28;20114;-44
2021/04/22 11:22:05;;;;;;;20.08;3.88;;;13.70;54.40;;;;;;5031334;28;20029;-45
2021/04/22 11:24:36;;;;;;;13.80;3.95;;;13.60;54.40;;;;;;5031662;28;20495;-47
2021/04/22 11:27:10;;;;;;;11.75;3.65;;;13.60;53.10;;;;;;5032130;28;20028;-43
2021/04/22 11:29:50;;;;;;;10.47;4.03;;;13.60;53.90;;;;;;5033249;28;20560;-45
2021/04/22 11:32:22;;;;;;;7.93;3.40;;;13.70;52.50;;;;;;5032569;28;20053;-48
2021/04/22 11:34:49;;;;;;;16.42;4.53;;;13.80;53.10;;;;;;5032028;28;20351;-47
2021/04/22 11:37:19;;;;;;;10.93;4.30;;;13.80;54.40;;;;;;5033959;28;20140;-46
2021/04/22 11:39:45;;;;;;;12.32;3.88;;;13.90;54.70;;;;;;5033781;28;20025;-46
2021/04/22 11:42:11;;;;;;;11.50;4.22;;;14.00;54.80;;;;;;5033635;28;20018;-45
2021/04/22 11:44:50;;;;;;;11.55;3.47;;;14.00;54.50;;;;;;5032702;28;20032;-44
2021/04/22 11:47:19;;;;;;;10.30;3.92;;;14.10;52.30;;;;;;5033258;28;20117;-44
2021/04/22 11:49:46;;;;;;;10.32;3.13;;;13.80;52.20;;;;;;5033190;28;20534;-45
2021/04/22 11:52:17;;;;;;;13.07;3.30;;;13.70;52.10;;;;;;5033301;28;20371;-44
2021/04/22 11:54:43;;;;;;;11.40;3.80;;;13.60;51.80;;;;;;5032601;28;20029;-46
2021/04/22 11:57:10;;;;;;;9.32;3.30;;;13.50;52.40;;;;;;5033590;28;20025;-44
2021/04/22 11:59:36;;;;;;;15.13;3.95;;;13.70;53.50;;;;;;5033191;28;20099;-46
2021/04/22 12:02:10;;;;;;;10.52;3.10;;;13.80;52.70;;;;;;5033218;28;20429;-45
2021/04/22 12:04:42;;;;;;;12.27;4.25;;;13.40;52.60;;;;;;5032016;28;20029;-46
2021/04/22 12:07:19;;;;;;;14.25;4.15;;;13.40;53.80;;;;;;5031835;28;20025;-48
2021/04/22 12:09:52;;;;;;;14.07;3.70;;;13.50;55.70;;;;;;5014660;28;20086;-44
2021/04/22 12:12:19;;;;;;;10.95;3.60;;;13.50;53.30;;;;;;5033235;28;20107;-45
2021/04/22 12:14:51;;;;;;;20.15;4.38;;;13.50;55.00;;;;;;5032295;28;20097;-49
2021/04/22 12:17:26;;;;;;;9.40;3.22;;;13.60;54.50;;;;;;5033141;28;20030;-45
2021/04/22 12:19:58;;;;;;;13.18;3.22;;;13.70;53.00;;;;;;5031947;28;20017;-50
2021/04/22 12:22:31;;;;;;;10.68;3.28;;;13.70;53.70;;;;;;5031244;28;20030;-52
2021/04/22 12:24:57;;;;;;;9.73;3.90;;;13.90;54.30;;;;;;5031799;28;20033;-46
2021/04/22 12:27:28;;;;;;;9.98;3.72;;;13.80;50.60;;;;;;5014778;28;20030;-45
2021/04/22 12:29:54;;;;;;;14.45;3.67;;;13.90;51.40;;;;;;5014850;28;20030;-43
2021/04/22 12:32:20;;;;;;;11.68;4.10;;;13.90;50.80;;;;;;5032790;28;20029;-46
2021/04/22 12:34:46;;;;;;;12.35;3.58;;;13.80;51.70;;;;;;5013634;28;20022;-44
2021/04/22 12:37:13;;;;;;;8.70;3.20;;;13.80;51.60;;;;;;5032285;28;20018;-44
2021/04/22 12:39:42;;;;;;;12.27;2.95;;;13.80;51.00;;;;;;5032636;28;20502;-45
2021/04/22 12:42:19;;;;;;;19.52;5.10;;;13.90;51.30;;;;;;5032010;28;20029;-45
2021/04/22 12:44:57;;;;;;;17.88;4.22;;;14.00;51.00;;;;;;5032013;28;20018;-44